Time;durP1;ratioP1;P1;durP2;ratioP2;P2;SDS_P1;SDS_P2;PMS_P1;PMS_P2;Temp;Humidity;BMP_temperature;BMP_pressure;BME280_temperature;BME280_humidity;BME280_pressure;Samples;Min_cycle;Max_cycle;Signal;HPM_P1;HPM_P2
2022/04/15 00:02:05;;;;;;;12.07;9.98;;;;;;;16.49;70.48;97054.78;5074963;28;20217;-56
2022/04/15 00:04:32;;;;;;;10.48;9.48;;;;;;;16.51;70.77;97050.91;5075628;28;20211;-58
2022/04/15 00:07:12;;;;;;;11.07;10.07;;;;;;;16.50;70.58;97054.59;5074757;28;20202;-57
2022/04/15 00:09:39;;;;;;;10.75;9.73;;;;;;;16.46;70.80;97052.44;5074960;28;20206;-57
2022/04/15 00:12:17;;;;;;;11.00;9.63;;;;;;;16.46;71.90;97053.28;5076749;28;20209;-58
2022/04/15 00:14:44;;;;;;;9.47;8.57;;;;;;;16.47;71.54;97060.28;5076694;28;20198;-57
2022/04/15 00:17:11;;;;;;;9.80;8.90;;;;;;;16.45;71.88;97051.59;5077186;28;20210;-56
2022/04/15 00:19:38;;;;;;;10.10;9.07;;;;;;;16.42;71.78;97052.78;5080609;28;20221;-56
2022/04/15 00:22:11;;;;;;;11.65;9.40;;;;;;;16.37;73.43;97051.59;5081251;28;20199;-56
2022/04/15 00:24:39;;;;;;;10.50;9.50;;;;;;;16.38;72.55;97053.28;5071643;28;20249;-57
2022/04/15 00:27:05;;;;;;;12.45;10.75;;;;;;;16.28;70.66;97040.13;5080951;28;20198;-56
2022/04/15 00:29:32;;;;;;;10.90;9.90;;;;;;;16.34;71.14;97041.28;5079778;28;20226;-55
2022/04/15 00:31:59;;;;;;;10.20;8.93;;;;;;;16.34;72.87;97041.28;5076730;28;20211;-56
2022/04/15 00:34:25;;;;;;;9.77;8.77;;;;;;;16.33;72.01;97037.75;5078550;28;20205;-56
2022/04/15 00:36:51;;;;;;;9.15;7.55;;;;;;;16.35;72.19;97033.09;5078344;28;20203;-57
2022/04/15 00:39:19;;;;;;;10.45;9.38;;;;;;;16.30;72.23;97032.78;5077255;28;20207;-56
2022/04/15 00:41:46;;;;;;;10.85;9.80;;;;;;;16.27;71.35;97032.28;5073072;28;20203;-57
2022/04/15 00:44:13;;;;;;;9.82;8.82;;;;;;;16.27;72.76;97040.28;5093364;28;20195;-55
2022/04/15 00:46:40;;;;;;;11.05;9.38;;;;;;;16.26;72.99;97041.31;5097430;28;20218;-56
2022/04/15 00:49:06;;;;;;;12.20;9.00;;;;;;;16.24;73.88;97041.47;5096874;28;20230;-56
2022/04/15 00:51:36;;;;;;;10.95;9.52;;;;;;;16.20;72.27;97045.47;5072823;28;20638;-55
2022/04/15 00:54:05;;;;;;;13.85;9.63;;;;;;;16.23;72.19;97046.94;5072465;28;20296;-54
2022/04/15 00:56:36;;;;;;;10.80;9.70;;;;;;;16.22;71.89;97048.81;5072586;28;20207;-56
2022/04/15 00:59:04;;;;;;;11.07;9.13;;;;;;;16.23;72.54;97047.78;5072457;28;20776;-55
2022/04/15 01:01:32;;;;;;;10.32;9.43;;;;;;;16.21;72.10;97051.63;5072305;28;20209;-56
2022/04/15 01:03:59;;;;;;;11.77;9.82;;;;;;;16.24;71.98;97048.63;5072338;28;20237;-57
2022/04/15 01:06:30;;;;;;;11.75;9.65;;;;;;;16.23;71.81;97046.94;5072889;28;20206;-57
2022/04/15 01:08:58;;;;;;;13.15;9.77;;;;;;;16.26;71.77;97051.97;5063405;28;20219;-56
2022/04/15 01:11:27;;;;;;;9.87;9.03;;;;;;;16.23;71.62;97054.97;5072583;28;20282;-58
2022/04/15 01:13:57;;;;;;;12.30;10.43;;;;;;;16.17;72.22;97053.81;5072734;28;20195;-57
2022/04/15 01:16:27;;;;;;;11.13;9.77;;;;;;;16.14;72.26;97053.31;5072499;28;20653;-58
2022/04/15 01:18:53;;;;;;;10.73;9.65;;;;;;;16.11;72.65;97048.31;5072461;28;20202;-57
2022/04/15 01:21:20;;;;;;;13.00;10.93;;;;;;;16.05;73.22;97049.00;5072670;28;20202;-57
2022/04/15 01:23:48;;;;;;;11.57;10.47;;;;;;;16.00;73.98;97053.97;5071801;28;20241;-57
2022/04/15 01:26:18;;;;;;;13.73;11.03;;;;;;;15.97;74.05;97056.97;5069123;28;20245;-57
2022/04/15 01:28:45;;;;;;;10.85;9.70;;;;;;;15.92;74.71;97058.31;5075860;28;20230;-56
2022/04/15 01:31:11;;;;;;;12.70;11.37;;;;;;;15.85;75.39;97059.97;5082204;28;20199;-57
2022/04/15 01:33:37;;;;;;;12.05;9.85;;;;;;;15.83;75.85;97061.97;5077714;28;20206;-56
2022/04/15 01:36:04;;;;;;;12.55;11.25;;;;;;;15.76;76.37;97063.66;5074674;28;20245;-58
2022/04/15 01:38:31;;;;;;;12.43;10.43;;;;;;;15.72;76.68;97066.78;5096077;28;20199;-56
2022/04/15 01:40:59;;;;;;;11.87;10.67;;;;;;;15.71;76.04;97063.28;5098927;28;20191;-58
2022/04/15 01:43:27;;;;;;;11.83;10.33;;;;;;;15.68;76.49;97063.63;5090166;28;20210;-57
2022/04/15 01:45:55;;;;;;;12.63;10.87;;;;;;;15.62;76.29;97066.97;5071953;28;20581;-57
2022/04/15 01:48:22;;;;;;;11.00;9.90;;;;;;;15.64;76.23;97072.94;5072031;28;20218;-57
2022/04/15 01:50:48;;;;;;;9.40;8.53;;;;;;;15.63;76.40;97071.25;5071475;28;20651;-57
2022/04/15 01:53:16;;;;;;;11.03;9.57;;;;;;;15.64;75.91;97067.63;5071809;28;20207;-57
2022/04/15 01:55:42;;;;;;;11.10;8.85;;;;;;;15.60;75.79;97074.25;5071595;28;20226;-56
2022/04/15 01:58:11;;;;;;;10.63;9.03;;;;;;;15.62;75.13;97079.44;5071840;28;20202;-57
2022/04/15 02:00:38;;;;;;;10.70;9.47;;;;;;;15.61;75.48;97072.44;5071941;28;20209;-57
2022/04/15 02:03:06;;;;;;;11.13;10.07;;;;;;;15.55;75.22;97073.94;5070677;28;20221;-57
2022/04/15 02:05:35;;;;;;;10.02;9.02;;;;;;;15.56;75.85;97061.41;5071869;28;20206;-58
2022/04/15 02:08:02;;;;;;;10.40;8.97;;;;;;;15.54;76.68;97071.41;5070969;28;20260;-57
2022/04/15 02:10:30;;;;;;;10.20;9.00;;;;;;;15.54;76.67;97074.94;5071223;28;20216;-57
2022/04/15 02:12:56;;;;;;;12.00;9.60;;;;;;;15.52;74.99;97076.09;5071262;28;20202;-57
2022/04/15 02:15:27;;;;;;;10.38;9.38;;;;;;;15.52;73.91;97068.09;5071258;28;20225;-56
2022/04/15 02:17:54;;;;;;;11.82;9.40;;;;;;;15.50;74.18;97070.91;5070448;28;20229;-58
2022/04/15 02:20:22;;;;;;;10.50;8.23;;;;;;;15.47;75.54;97076.53;5071513;28;20561;-57
2022/04/15 02:22:50;;;;;;;9.55;8.25;;;;;;;15.43;76.24;97080.53;5070929;28;20218;-57
2022/04/15 02:25:17;;;;;;;10.27;8.60;;;;;;;15.36;76.59;97084.84;5071250;28;20653;-57
2022/04/15 02:27:44;;;;;;;10.10;8.63;;;;;;;15.37;76.20;97076.66;5071028;28;20213;-57
2022/04/15 02:30:11;;;;;;;9.63;8.70;;;;;;;15.31;76.98;97076.47;5071222;28;20218;-57
2022/04/15 02:32:39;;;;;;;9.82;8.90;;;;;;;15.28;76.21;97090.13;5071278;28;20195;-57
2022/04/15 02:35:08;;;;;;;9.60;8.67;;;;;;;15.24;76.33;97088.78;5071204;28;20207;-57
2022/04/15 02:37:34;;;;;;;9.80;8.43;;;;;;;15.21;76.42;97083.78;5070096;28;20325;-58
2022/04/15 02:40:01;;;;;;;10.67;8.40;;;;;;;15.13;77.22;97083.72;5071118;28;20256;-57
2022/04/15 02:42:29;;;;;;;10.73;9.00;;;;;;;15.05;78.17;97081.06;5071060;28;20218;-57
2022/04/15 02:44:56;;;;;;;9.80;8.40;;;;;;;15.04;77.97;97079.38;5070751;28;20190;-58
2022/04/15 02:47:22;;;;;;;11.83;9.30;;;;;;;14.99;77.79;97081.69;5071190;28;20202;-58
2022/04/15 02:49:51;;;;;;;8.47;7.67;;;;;;;14.98;78.51;97074.69;5071325;28;20237;-57
2022/04/15 02:52:17;;;;;;;9.20;8.27;;;;;;;14.98;78.00;97069.38;5070970;28;20249;-56
2022/04/15 02:54:43;;;;;;;9.23;7.70;;;;;;;15.00;77.80;97062.06;5070077;28;20864;-57
2022/04/15 02:57:10;;;;;;;9.20;8.40;;;;;;;14.98;77.20;97059.56;5070834;28;20195;-57
2022/04/15 02:59:37;;;;;;;9.83;8.20;;;;;;;14.90;77.80;97057.69;5070670;28;20190;-57
2022/04/15 03:02:04;;;;;;;12.30;9.57;;;;;;;14.78;78.95;97058.94;5074487;28;20189;-57
2022/04/15 03:04:31;;;;;;;9.77;8.83;;;;;;;14.71;78.63;97063.25;5092803;28;20191;-56
2022/04/15 03:06:59;;;;;;;9.57;8.47;;;;;;;14.65;78.55;97063.88;5096380;28;20175;-57
2022/04/15 03:09:27;;;;;;;10.30;9.27;;;;;;;14.55;78.71;97065.00;5085235;28;20538;-57
2022/04/15 03:11:54;;;;;;;9.40;8.43;;;;;;;14.45;78.72;97059.78;5071779;28;20214;-57
2022/04/15 03:14:20;;;;;;;12.53;8.43;;;;;;;14.33;79.02;97056.50;5085396;28;20269;-57
2022/04/15 03:16:48;;;;;;;9.80;8.70;;;;;;;14.24;79.21;97059.28;5096069;28;20191;-57
2022/04/15 03:19:15;;;;;;;10.47;8.87;;;;;;;14.11;80.02;97062.31;5092520;28;20206;-57
2022/04/15 03:21:41;;;;;;;8.60;7.67;;;;;;;14.05;80.08;97064.75;5075135;28;20206;-57
2022/04/15 03:24:12;;;;;;;12.23;8.00;;;;;;;13.98;80.67;97061.06;5074065;28;20229;-57
2022/04/15 03:26:39;;;;;;;10.10;8.60;;;;;;;13.96;80.19;97070.00;5074092;28;20306;-57
2022/04/15 03:29:05;;;;;;;9.80;8.07;;;;;;;13.89;80.95;97076.94;5073581;28;20226;-57
2022/04/15 03:31:32;;;;;;;10.97;8.17;;;;;;;13.80;81.59;97072.53;5074285;28;20205;-57
2022/04/15 03:33:58;;;;;;;9.23;8.43;;;;;;;13.82;81.49;97075.88;5074326;28;20198;-57
2022/04/15 03:36:26;;;;;;;9.63;8.63;;;;;;;13.80;81.96;97083.19;5074221;28;20217;-57
2022/04/15 03:38:54;;;;;;;10.00;8.20;;;;;;;13.80;81.77;97075.19;5074174;28;20202;-57
2022/04/15 03:41:23;;;;;;;8.60;7.80;;;;;;;13.77;82.42;97083.47;5074168;28;20843;-57
2022/04/15 03:43:52;;;;;;;9.40;8.03;;;;;;;13.80;82.46;97072.53;5074072;28;20205;-56
2022/04/15 03:46:19;;;;;;;10.37;8.40;;;;;;;13.83;82.27;97077.56;5074662;28;20206;-57
2022/04/15 03:48:46;;;;;;;9.80;8.43;;;;;;;13.74;84.05;97072.31;5074148;28;20236;-57
2022/04/15 03:51:13;;;;;;;9.43;8.40;;;;;;;13.74;84.30;97078.47;5071679;28;20253;-57
2022/04/15 03:53:39;;;;;;;9.37;8.30;;;;;;;13.76;84.01;97086.28;5073847;28;20203;-56
2022/04/15 03:56:07;;;;;;;11.67;10.33;;;;;;;13.80;83.46;97082.34;5074487;28;20569;-58
2022/04/15 03:58:36;;;;;;;10.73;9.63;;;;;;;13.79;83.48;97092.13;5074277;28;20214;-56
2022/04/15 04:01:03;;;;;;;11.80;9.20;;;;;;;13.82;83.39;97088.31;5074062;28;20222;-58
2022/04/15 04:03:30;;;;;;;10.07;8.93;;;;;;;13.76;84.95;97088.94;5073645;28;20210;-57
2022/04/15 04:05:57;;;;;;;10.43;9.40;;;;;;;13.78;84.74;97089.63;5074397;28;20205;-57
2022/04/15 04:08:24;;;;;;;9.63;8.63;;;;;;;13.81;84.21;97095.50;5073343;28;20209;-56
2022/04/15 04:10:50;;;;;;;10.20;8.37;;;;;;;13.82;84.05;97099.78;5073696;28;20226;-56
2022/04/15 04:13:18;;;;;;;9.87;8.30;;;;;;;13.81;83.40;97099.97;5073734;28;20202;-57
2022/04/15 04:15:46;;;;;;;9.70;8.13;;;;;;;13.83;83.49;97098.81;5073366;28;20218;-56
2022/04/15 04:18:14;;;;;;;8.37;7.37;;;;;;;13.82;83.77;97105.09;5073594;28;20297;-57
2022/04/15 04:20:41;;;;;;;9.47;8.17;;;;;;;13.83;83.87;97103.28;5073365;28;20226;-57
2022/04/15 04:23:08;;;;;;;8.50;7.70;;;;;;;13.87;83.43;97110.81;5064092;28;20291;-57
2022/04/15 04:25:35;;;;;;;9.77;8.67;;;;;;;13.87;83.80;97112.63;5073524;28;20198;-57
2022/04/15 04:28:01;;;;;;;9.23;8.00;;;;;;;13.89;83.41;97114.16;5072244;28;20242;-57
2022/04/15 04:30:30;;;;;;;10.03;8.60;;;;;;;13.91;83.48;97112.19;5072795;28;20245;-56
2022/04/15 04:33:00;;;;;;;10.30;8.20;;;;;;;13.95;83.60;97107.41;5072871;28;20203;-57
2022/04/15 04:35:26;;;;;;;9.07;8.17;;;;;;;13.93;83.73;97112.88;5072548;28;20242;-57
2022/04/15 04:37:53;;;;;;;8.80;7.90;;;;;;;13.93;84.14;97112.88;5073150;28;20308;-57
2022/04/15 04:40:20;;;;;;;9.17;8.17;;;;;;;13.91;84.17;97114.00;5072931;28;20214;-57
2022/04/15 04:42:48;;;;;;;8.97;8.07;;;;;;;13.91;84.29;97122.00;5087965;28;20202;-57
2022/04/15 04:45:16;;;;;;;7.90;7.17;;;;;;;13.94;83.75;97122.53;5082781;28;20306;-57
2022/04/15 04:47:44;;;;;;;9.23;7.37;;;;;;;13.96;83.67;97120.53;5072606;28;20206;-58
2022/04/15 04:50:13;;;;;;;7.27;6.60;;;;;;;14.02;82.98;97118.25;5073683;28;20600;-57
2022/04/15 04:52:41;;;;;;;9.93;6.80;;;;;;;13.99;82.40;97123.91;5073856;28;20191;-57
2022/04/15 04:55:08;;;;;;;8.20;7.00;;;;;;;13.89;83.77;97124.78;5075573;28;20214;-56
2022/04/15 04:57:35;;;;;;;7.90;7.13;;;;;;;13.91;83.09;97128.16;5078718;28;21181;-57
2022/04/15 05:00:01;;;;;;;9.67;7.13;;;;;;;13.92;82.05;97134.31;5078841;28;20203;-58
2022/04/15 05:02:32;;;;;;;7.83;7.07;;;;;;;13.90;82.18;97128.28;5073636;28;20202;-57
2022/04/15 05:04:59;;;;;;;7.43;6.63;;;;;;;13.87;82.20;97134.75;5072844;28;20271;-56
2022/04/15 05:07:29;;;;;;;7.93;7.17;;;;;;;13.84;82.03;97136.88;5072911;28;20203;-58
2022/04/15 05:09:56;;;;;;;7.87;6.80;;;;;;;13.79;81.97;97137.31;5072202;28;20207;-57
2022/04/15 05:12:24;;;;;;;7.73;6.37;;;;;;;13.75;82.65;97138.59;5072437;28;20217;-57
2022/04/15 05:14:51;;;;;;;9.17;6.63;;;;;;;13.75;82.64;97137.75;5073098;28;20229;-57
2022/04/15 05:17:17;;;;;;;8.03;6.37;;;;;;;13.79;82.77;97137.31;5074277;28;20213;-57
2022/04/15 05:19:44;;;;;;;7.03;6.10;;;;;;;13.77;82.65;97131.34;5074862;28;20198;-58
2022/04/15 05:22:11;;;;;;;6.83;5.97;;;;;;;13.73;83.44;97150.38;5078467;28;20199;-58
2022/04/15 05:24:40;;;;;;;7.17;6.10;;;;;;;13.75;83.27;97148.41;5095598;28;20226;-58
2022/04/15 05:27:07;;;;;;;7.87;6.53;;;;;;;13.73;83.83;97158.34;5088789;28;20186;-57
2022/04/15 05:29:33;;;;;;;7.13;6.07;;;;;;;13.74;83.30;97155.56;5092185;28;20637;-57
2022/04/15 05:32:00;;;;;;;9.23;6.60;;;;;;;13.77;84.38;97155.25;5073580;28;20206;-57
2022/04/15 05:34:28;;;;;;;8.60;5.80;;;;;;;13.84;83.71;97158.97;5072359;28;20291;-56
2022/04/15 05:36:56;;;;;;;6.63;6.03;;;;;;;13.87;84.06;97157.84;5072720;28;20194;-57
2022/04/15 05:39:25;;;;;;;9.63;6.40;;;;;;;13.94;84.08;97156.25;5071961;28;20214;-57
2022/04/15 05:41:57;;;;;;;8.07;6.50;;;;;;;14.01;83.88;97153.81;5072289;28;20211;-56
2022/04/15 05:44:24;;;;;;;6.90;6.23;;;;;;;14.08;84.22;97152.22;5072090;28;20236;-57
2022/04/15 05:46:51;;;;;;;7.80;6.73;;;;;;;14.11;83.63;97159.88;5071955;28;20205;-57
2022/04/15 05:49:34;;;;;;;9.30;6.60;;;;;;;14.22;82.92;97157.84;5071906;28;20241;-57
2022/04/15 05:52:00;;;;;;;7.73;6.40;;;;;;;14.35;82.93;97162.78;5072010;28;20255;-57
2022/04/15 05:54:27;;;;;;;7.30;6.37;;;;;;;14.45;82.09;97163.56;5071438;28;20749;-57
2022/04/15 05:56:56;;;;;;;6.50;6.00;;;;;;;14.58;81.85;97161.34;5071922;28;20206;-57
2022/04/15 05:59:23;;;;;;;8.87;6.40;;;;;;;14.65;81.35;97165.03;5062535;28;20213;-58
2022/04/15 06:01:51;;;;;;;8.83;6.60;;;;;;;14.78;80.99;97172.59;5071166;28;20212;-57
2022/04/15 06:04:18;;;;;;;7.97;6.43;;;;;;;14.92;80.52;97172.88;5071036;28;20202;-57
2022/04/15 06:06:46;;;;;;;7.07;6.20;;;;;;;15.02;79.07;97182.59;5071920;28;20252;-57
2022/04/15 06:09:15;;;;;;;8.03;5.77;;;;;;;15.07;78.40;97183.78;5061849;28;20209;-57
2022/04/15 06:11:42;;;;;;;6.90;6.00;;;;;;;15.11;77.94;97186.97;5071579;28;20623;-57
2022/04/15 06:14:11;;;;;;;6.87;6.27;;;;;;;15.10;77.15;97186.13;5071609;28;20202;-57
2022/04/15 06:16:39;;;;;;;8.77;6.17;;;;;;;15.21;77.56;97177.88;5070348;28;20545;-57
2022/04/15 06:19:07;;;;;;;7.57;6.10;;;;;;;15.29;76.51;97185.06;5062481;28;20285;-57
2022/04/15 06:21:33;;;;;;;8.37;6.07;;;;;;;15.27;78.21;97187.88;5071219;28;20588;-57
2022/04/15 06:24:00;;;;;;;7.13;6.50;;;;;;;15.30;76.38;97189.41;5071170;28;20246;-57
2022/04/15 06:26:27;;;;;;;7.30;5.73;;;;;;;15.28;76.76;97191.38;5071219;28;20206;-57
2022/04/15 06:28:53;;;;;;;6.93;6.27;;;;;;;15.34;76.89;97196.91;5071372;28;20199;-58
2022/04/15 06:31:21;;;;;;;7.50;6.67;;;;;;;15.42;73.17;97196.13;5070595;28;20745;-57
2022/04/15 06:33:52;;;;;;;8.23;6.40;;;;;;;15.38;72.50;97194.75;5071067;28;20298;-57
2022/04/15 06:36:19;;;;;;;7.03;5.87;;;;;;;15.46;72.79;97197.47;5071477;28;20201;-57
2022/04/15 06:38:45;;;;;;;6.37;5.80;;;;;;;15.46;74.06;97189.47;5080716;28;20213;-57
2022/04/15 06:41:13;;;;;;;11.23;6.60;;;;;;;15.50;74.07;97193.53;5091979;28;20195;-58
2022/04/15 06:43:41;;;;;;;8.73;6.20;;;;;;;15.57;75.18;97197.22;5090340;28;20198;-57
2022/04/15 06:46:08;;;;;;;6.70;5.57;;;;;;;15.57;75.49;97189.22;5071491;28;20199;-57
2022/04/15 06:48:37;;;;;;;8.80;6.70;;;;;;;15.51;72.64;97197.88;5071428;28;20217;-57
2022/04/15 06:51:04;;;;;;;7.27;6.00;;;;;;;15.45;71.75;97198.47;5073094;28;20545;-58
2022/04/15 06:53:30;;;;;;;6.90;6.00;;;;;;;15.50;72.78;97198.88;5074778;28;20645;-57
2022/04/15 06:55:57;;;;;;;10.07;6.30;;;;;;;15.53;72.19;97193.22;5075303;28;20218;-57
2022/04/15 06:58:24;;;;;;;6.60;5.97;;;;;;;15.55;73.78;97195.72;5075385;28;20478;-57
2022/04/15 07:00:53;;;;;;;6.40;5.80;;;;;;;15.64;73.60;97202.75;5075252;28;20190;-57
2022/04/15 07:03:21;;;;;;;6.60;6.00;;;;;;;15.64;71.38;97197.41;5074635;28;20293;-57
2022/04/15 07:05:48;;;;;;;6.93;5.60;;;;;;;15.74;71.92;97196.28;5075699;28;20201;-57
2022/04/15 07:08:15;;;;;;;6.60;5.97;;;;;;;15.71;70.41;97196.63;5065378;28;20225;-57
2022/04/15 07:10:42;;;;;;;8.97;5.30;;;;;;;15.76;71.71;97194.31;5075565;28;20223;-57
2022/04/15 07:13:10;;;;;;;6.03;5.40;;;;;;;15.86;72.00;97189.66;5075611;28;20213;-58
2022/04/15 07:15:37;;;;;;;6.07;5.47;;;;;;;15.94;71.68;97203.00;5075125;28;20275;-58
2022/04/15 07:18:13;;;;;;;7.13;6.10;;;;;;;16.01;70.81;97205.88;5074437;28;20206;-57
2022/04/15 07:20:40;;;;;;;8.30;6.13;;;;;;;16.11;71.14;97200.41;5075234;28;20248;-58
2022/04/15 07:23:08;;;;;;;6.67;5.93;;;;;;;16.32;70.92;97203.44;5075080;28;20233;-57
2022/04/15 07:25:35;;;;;;;7.97;6.10;;;;;;;16.57;70.06;97199.81;5075049;28;20789;-57
2022/04/15 07:28:02;;;;;;;8.63;6.45;;;;;;;16.72;68.74;97198.13;5075596;28;20245;-58
2022/04/15 07:30:29;;;;;;;11.07;8.10;;;;;;;16.90;68.01;97192.59;5075455;28;20223;-57
2022/04/15 07:32:56;;;;;;;8.15;7.22;;;;;;;16.84;68.15;97210.16;5076517;28;20198;-57
2022/04/15 07:35:22;;;;;;;9.02;7.30;;;;;;;16.99;68.02;97202.28;5069652;28;20198;-57
2022/04/15 07:37:51;;;;;;;9.43;7.07;;;;;;;16.97;69.21;97201.59;5079647;28;20202;-58
2022/04/15 07:40:20;;;;;;;8.40;6.80;;;;;;;17.10;68.24;97198.44;5080952;28;20202;-56
2022/04/15 07:42:46;;;;;;;9.27;5.80;;;;;;;17.11;67.02;97202.78;5084084;28;20202;-55
2022/04/15 07:45:13;;;;;;;12.13;6.50;;;;;;;17.32;66.57;97203.88;5083655;28;20195;-57
2022/04/15 07:47:40;;;;;;;7.70;6.78;;;;;;;17.59;66.68;97200.00;5091719;28;20270;-58
2022/04/15 07:50:08;;;;;;;9.65;8.65;;;;;;;17.61;68.13;97208.66;5092418;28;20298;-58
2022/04/15 07:52:36;;;;;;;9.70;7.65;;;;;;;17.71;67.10;97195.91;5092277;28;20205;-58
2022/04/15 07:55:03;;;;;;;9.38;8.43;;;;;;;17.90;66.21;97200.84;5076014;28;20202;-58
2022/04/15 07:57:32;;;;;;;11.10;8.75;;;;;;;18.20;66.20;97195.69;5075651;28;20217;-57
2022/04/15 07:59:59;;;;;;;10.15;7.88;;;;;;;18.55;65.55;97200.47;5074572;28;20688;-58
2022/04/15 08:02:26;;;;;;;9.40;8.10;;;;;;;18.70;64.67;97192.50;5073833;28;20661;-57
2022/04/15 08:04:57;;;;;;;9.10;8.20;;;;;;;18.78;64.13;97200.44;5073999;28;20634;-57
2022/04/15 08:07:24;;;;;;;9.32;8.43;;;;;;;18.79;63.77;97199.44;5074879;28;20206;-58
2022/04/15 08:09:50;;;;;;;9.27;8.38;;;;;;;18.75;64.54;97201.66;5074171;28;20293;-57
2022/04/15 08:12:17;;;;;;;8.88;8.07;;;;;;;18.84;64.56;97200.59;5074116;28;20202;-58
2022/04/15 08:14:45;;;;;;;9.70;8.80;;;;;;;18.74;65.03;97205.34;5073270;28;20210;-57
2022/04/15 08:17:11;;;;;;;11.27;8.55;;;;;;;18.67;64.29;97207.06;5074117;28;20226;-58
2022/04/15 08:19:38;;;;;;;11.68;9.55;;;;;;;18.28;65.22;97209.03;5073768;28;20210;-57
2022/04/15 08:22:09;;;;;;;10.93;9.82;;;;;;;18.10;65.58;97205.78;5067367;28;20573;-58
2022/04/15 08:24:39;;;;;;;10.52;9.50;;;;;;;18.09;67.85;97209.47;5080489;28;20579;-57
2022/04/15 08:27:05;;;;;;;12.77;10.45;;;;;;;18.19;67.38;97210.91;5076923;28;20255;-58
2022/04/15 08:29:35;;;;;;;9.07;7.95;;;;;;;18.19;68.51;97210.91;5072486;28;20209;-57
2022/04/15 08:32:03;;;;;;;9.20;8.30;;;;;;;18.27;67.73;97205.50;5073925;28;20214;-57
2022/04/15 08:34:30;;;;;;;13.45;11.48;;;;;;;17.92;67.25;97209.53;5073001;28;20282;-58
2022/04/15 08:36:59;;;;;;;12.88;11.45;;;;;;;17.62;67.83;97212.19;5073148;28;20213;-58
2022/04/15 08:39:25;;;;;;;12.20;11.00;;;;;;;17.45;69.38;97213.22;5073132;28;20209;-57
2022/04/15 08:41:54;;;;;;;17.50;12.73;;;;;;;17.31;70.19;97212.94;5072288;28;20213;-57
2022/04/15 08:44:22;;;;;;;13.88;12.57;;;;;;;17.31;70.50;97217.44;5073024;28;20222;-57
2022/04/15 08:46:48;;;;;;;13.35;11.85;;;;;;;17.42;70.09;97217.91;5072498;28;20210;-57
2022/04/15 08:49:19;;;;;;;12.98;11.65;;;;;;;17.22;71.09;97218.44;5072460;28;20205;-58
2022/04/15 08:51:46;;;;;;;12.40;11.02;;;;;;;17.22;70.97;97223.78;5073936;28;20210;-59
2022/04/15 08:54:14;;;;;;;12.82;11.52;;;;;;;17.14;71.50;97230.00;5073322;28;20264;-57
2022/04/15 08:56:42;;;;;;;14.00;11.95;;;;;;;17.26;71.14;97225.97;5072880;28;20202;-57
2022/04/15 08:59:08;;;;;;;14.10;11.82;;;;;;;17.16;71.41;97222.63;5073303;28;20248;-58
2022/04/15 09:01:35;;;;;;;12.35;11.15;;;;;;;17.19;71.44;97219.63;5073709;28;20199;-57
2022/04/15 09:04:01;;;;;;;12.65;11.13;;;;;;;17.26;72.30;97215.25;5074435;28;20190;-58
2022/04/15 09:06:31;;;;;;;13.10;11.75;;;;;;;17.20;72.18;97217.78;5076070;28;20203;-58
2022/04/15 09:09:07;;;;;;;14.52;12.13;;;;;;;17.22;72.62;97221.94;5085296;28;20229;-57
2022/04/15 09:11:37;;;;;;;14.93;13.38;;;;;;;17.22;71.94;97221.94;5094976;28;20198;-56
2022/04/15 09:14:08;;;;;;;15.13;13.63;;;;;;;17.24;72.11;97219.97;5092675;28;20263;-57
2022/04/15 09:16:38;;;;;;;14.98;13.48;;;;;;;17.29;74.21;97224.78;5086531;28;20201;-57
2022/04/15 09:19:07;;;;;;;11.73;10.55;;;;;;;17.42;73.05;97225.94;5073011;28;20203;-57
2022/04/15 09:21:36;;;;;;;13.30;11.88;;;;;;;17.45;73.30;97221.22;5072508;28;20241;-57
2022/04/15 09:24:02;;;;;;;12.57;11.40;;;;;;;17.48;72.06;97232.41;5071801;28;20241;-58
2022/04/15 09:26:29;;;;;;;15.48;14.02;;;;;;;17.47;71.28;97222.72;5072633;28;20202;-57
2022/04/15 09:28:56;;;;;;;14.40;13.05;;;;;;;17.61;70.68;97232.75;5074609;28;20195;-57
2022/04/15 09:31:25;;;;;;;15.60;14.00;;;;;;;17.76;69.84;97231.03;5082610;28;20222;-57
2022/04/15 09:33:56;;;;;;;15.48;13.88;;;;;;;17.85;70.22;97235.31;5079242;28;20194;-57
2022/04/15 09:36:27;;;;;;;13.65;12.25;;;;;;;18.44;70.67;97235.69;5072626;28;20206;-58
2022/04/15 09:39:04;;;;;;;14.88;13.38;;;;;;;18.66;66.65;97229.53;5072101;28;20194;-56
2022/04/15 09:41:31;;;;;;;14.50;13.05;;;;;;;18.72;66.89;97233.31;5072080;28;20194;-57
2022/04/15 09:44:00;;;;;;;14.48;13.18;;;;;;;18.91;65.94;97234.69;5071881;28;20211;-57
2022/04/15 09:46:29;;;;;;;14.43;12.98;;;;;;;18.68;65.36;97230.19;5071925;28;20202;-57
2022/04/15 09:49:05;;;;;;;14.70;13.30;;;;;;;18.62;66.05;97224.72;5071823;28;20222;-58
2022/04/15 09:51:34;;;;;;;14.07;12.77;;;;;;;18.75;64.96;97231.13;5071693;28;20206;-56
2022/04/15 09:54:07;;;;;;;14.02;12.63;;;;;;;18.73;65.11;97224.28;5071700;28;20646;-57
2022/04/15 09:56:36;;;;;;;14.07;12.68;;;;;;;18.88;65.17;97223.31;5072293;28;20194;-57
2022/04/15 09:59:08;;;;;;;13.43;12.23;;;;;;;19.12;66.37;97224.13;5062314;28;20199;-57
2022/04/15 10:01:41;;;;;;;12.75;11.65;;;;;;;19.10;64.92;97226.13;5071800;28;20190;-57
2022/04/15 10:04:10;;;;;;;13.80;12.40;;;;;;;19.12;64.60;97219.59;5096551;28;20205;-62
2022/04/15 10:06:39;;;;;;;13.90;12.52;;;;;;;19.25;64.66;97221.63;5095775;28;20182;-56
2022/04/15 10:09:15;;;;;;;14.18;12.98;;;;;;;19.43;64.14;97216.78;5089039;28;20210;-57
2022/04/15 10:11:46;;;;;;;13.70;12.35;;;;;;;19.47;62.00;97220.75;5073404;28;20225;-57
2022/04/15 10:14:15;;;;;;;14.23;12.52;;;;;;;19.45;62.50;97224.66;5062759;28;20199;-58
2022/04/15 10:16:44;;;;;;;12.77;11.52;;;;;;;19.57;63.86;97224.00;5071582;28;20213;-57
2022/04/15 10:19:12;;;;;;;12.95;11.63;;;;;;;19.71;63.01;97219.66;5071499;28;20642;-57
2022/04/15 10:21:40;;;;;;;12.65;11.38;;;;;;;19.48;62.77;97219.75;5071384;28;20202;-56
2022/04/15 10:24:09;;;;;;;11.93;10.73;;;;;;;19.34;63.79;97218.66;5070923;28;20241;-57
2022/04/15 10:26:40;;;;;;;11.63;10.60;;;;;;;19.19;63.73;97215.16;5071386;28;20581;-58
2022/04/15 10:29:09;;;;;;;11.10;10.07;;;;;;;19.00;63.60;97210.31;5071647;28;20206;-57
2022/04/15 10:31:44;;;;;;;11.52;10.32;;;;;;;18.95;65.11;97212.72;5071380;28;20222;-57
2022/04/15 10:34:12;;;;;;;13.20;11.93;;;;;;;18.80;64.12;97215.34;5071400;28;20206;-57
2022/04/15 10:36:39;;;;;;;12.85;11.55;;;;;;;18.88;64.16;97209.91;5071990;28;20209;-57
2022/04/15 10:39:15;;;;;;;13.48;11.35;;;;;;;18.86;65.66;97211.94;5071259;28;20220;-57
2022/04/15 10:41:53;;;;;;;12.45;10.63;;;;;;;19.01;64.98;97209.31;5071424;28;20195;-57
2022/04/15 10:44:28;;;;;;;10.80;9.75;;;;;;;19.16;64.89;97209.34;5071313;28;20198;-57
2022/04/15 10:46:59;;;;;;;12.20;11.00;;;;;;;19.12;63.11;97202.66;5071792;28;20543;-57
2022/04/15 10:49:27;;;;;;;14.10;10.20;;;;;;;19.74;61.29;97204.00;5063161;28;20206;-57
2022/04/15 10:51:59;;;;;;;12.45;11.15;;;;;;;20.18;60.57;97212.00;5072292;28;20681;-57
2022/04/15 10:54:51;;;;;;;12.05;10.95;;;;;;;20.58;58.59;97204.41;5071489;28;20255;-57
2022/04/15 10:57:18;;;;;;;11.45;10.50;;;;;;;21.05;57.11;97209.13;5067502;28;20229;-57
2022/04/15 11:02:38;;;;;;;9.30;8.50;;;;;;;22.19;54.25;97200.56;5071013;28;20205;-58
2022/04/15 11:05:06;;;;;;;10.15;9.23;;;;;;;22.28;52.61;97196.66;5070821;28;20207;-57
2022/04/15 11:07:43;;;;;;;10.20;9.27;;;;;;;22.48;53.86;97202.91;5071097;28;20198;-57
2022/04/15 11:10:19;;;;;;;10.52;7.82;;;;;;;22.26;49.59;97198.72;5070272;28;20194;-57
2022/04/15 11:12:46;;;;;;;9.73;7.82;;;;;;;21.59;50.60;97204.81;5070862;28;20218;-57
2022/04/15 11:15:14;;;;;;;8.43;6.85;;;;;;;21.52;51.46;97206.63;5070993;28;20239;-58
2022/04/15 11:17:52;;;;;;;7.43;6.72;;;;;;;21.28;51.21;97207.09;5070724;28;20206;-57
2022/04/15 11:20:19;;;;;;;9.15;6.95;;;;;;;21.06;53.96;97194.66;5070848;28;20201;-57
2022/04/15 11:22:45;;;;;;;9.85;8.45;;;;;;;20.65;52.40;97192.66;5070011;28;20209;-57
2022/04/15 11:25:14;;;;;;;8.57;6.70;;;;;;;20.63;55.17;97192.03;5070342;28;20187;-57
2022/04/15 11:27:42;;;;;;;9.60;7.60;;;;;;;20.39;53.26;97188.91;5070868;28;20627;-57
2022/04/15 11:30:13;;;;;;;8.98;6.47;;;;;;;20.29;53.37;97194.59;5070824;28;20198;-57
2022/04/15 11:32:47;;;;;;;8.10;6.53;;;;;;;20.21;54.76;97194.66;5070290;28;20701;-58
2022/04/15 11:35:28;;;;;;;7.13;5.82;;;;;;;20.22;54.98;97194.47;5069984;28;20234;-57